sensor_id;sensor_type;location;lat;lon;timestamp;temperature;humidity
74416;SHT31;62850;42.428;25.618;2023-07-13T00:01:15;25.84;63.88
74416;SHT31;62850;42.428;25.618;2023-07-13T00:03:41;25.75;63.83
74416;SHT31;62850;42.428;25.618;2023-07-13T00:06:07;25.75;64.04
74416;SHT31;62850;42.428;25.618;2023-07-13T00:08:33;25.72;64.13
74416;SHT31;62850;42.428;25.618;2023-07-13T00:11:03;25.62;64.41
74416;SHT31;62850;42.428;25.618;2023-07-13T00:13:29;25.64;64.29
74416;SHT31;62850;42.428;25.618;2023-07-13T00:15:57;25.57;64.32
74416;SHT31;62850;42.428;25.618;2023-07-13T00:18:22;25.53;64.75
74416;SHT31;62850;42.428;25.618;2023-07-13T00:20:48;25.45;64.52
74416;SHT31;62850;42.428;25.618;2023-07-13T00:23:14;25.51;64.71
74416;SHT31;62850;42.428;25.618;2023-07-13T00:25:39;25.53;64.62
74416;SHT31;62850;42.428;25.618;2023-07-13T00:28:05;25.43;64.84
74416;SHT31;62850;42.428;25.618;2023-07-13T00:30:30;25.41;64.89
74416;SHT31;62850;42.428;25.618;2023-07-13T00:32:56;25.40;64.89
74416;SHT31;62850;42.428;25.618;2023-07-13T00:35:22;25.43;64.90
74416;SHT31;62850;42.428;25.618;2023-07-13T00:37:48;25.43;64.97
74416;SHT31;62850;42.428;25.618;2023-07-13T00:40:16;25.38;65.22
74416;SHT31;62850;42.428;25.618;2023-07-13T00:42:42;25.34;65.30
74416;SHT31;62850;42.428;25.618;2023-07-13T00:47:40;25.26;65.53
74416;SHT31;62850;42.428;25.618;2023-07-13T00:50:08;25.22;65.43
74416;SHT31;62850;42.428;25.618;2023-07-13T00:52:35;25.16;65.70
74416;SHT31;62850;42.428;25.618;2023-07-13T00:55:02;25.13;65.72
74416;SHT31;62850;42.428;25.618;2023-07-13T00:57:28;25.10;65.80
74416;SHT31;62850;42.428;25.618;2023-07-13T00:59:55;25.09;65.88
74416;SHT31;62850;42.428;25.618;2023-07-13T01:02:24;25.02;65.97
74416;SHT31;62850;42.428;25.618;2023-07-13T01:04:49;24.97;66.31
74416;SHT31;62850;42.428;25.618;2023-07-13T01:07:15;24.95;66.50
74416;SHT31;62850;42.428;25.618;2023-07-13T01:09:41;24.83;66.63
74416;SHT31;62850;42.428;25.618;2023-07-13T01:12:07;24.82;66.80
74416;SHT31;62850;42.428;25.618;2023-07-13T01:14:32;24.85;66.74
74416;SHT31;62850;42.428;25.618;2023-07-13T01:16:58;24.85;66.70
74416;SHT31;62850;42.428;25.618;2023-07-13T01:19:42;24.77;66.76
74416;SHT31;62850;42.428;25.618;2023-07-13T01:22:10;24.73;66.96
74416;SHT31;62850;42.428;25.618;2023-07-13T01:24:38;24.65;67.50
74416;SHT31;62850;42.428;25.618;2023-07-13T01:27:06;24.59;67.37
74416;SHT31;62850;42.428;25.618;2023-07-13T01:29:34;24.58;67.44
74416;SHT31;62850;42.428;25.618;2023-07-13T01:32:00;24.64;67.25
74416;SHT31;62850;42.428;25.618;2023-07-13T01:34:27;24.61;67.35
74416;SHT31;62850;42.428;25.618;2023-07-13T01:36:53;24.59;67.43
74416;SHT31;62850;42.428;25.618;2023-07-13T01:39:21;24.58;67.57
74416;SHT31;62850;42.428;25.618;2023-07-13T01:41:47;24.56;67.72
74416;SHT31;62850;42.428;25.618;2023-07-13T01:44:12;24.64;67.31
74416;SHT31;62850;42.428;25.618;2023-07-13T01:46:38;24.64;67.30
74416;SHT31;62850;42.428;25.618;2023-07-13T01:49:03;24.64;67.34
74416;SHT31;62850;42.428;25.618;2023-07-13T01:51:29;24.58;67.61
74416;SHT31;62850;42.428;25.618;2023-07-13T01:53:54;24.52;67.96
74416;SHT31;62850;42.428;25.618;2023-07-13T01:56:20;24.49;67.76
74416;SHT31;62850;42.428;25.618;2023-07-13T01:58:46;24.51;67.80
74416;SHT31;62850;42.428;25.618;2023-07-13T02:01:11;24.54;67.78
74416;SHT31;62850;42.428;25.618;2023-07-13T02:03:37;24.47;67.93
74416;SHT31;62850;42.428;25.618;2023-07-13T02:06:02;24.44;68.17
74416;SHT31;62850;42.428;25.618;2023-07-13T02:08:28;24.41;68.14
74416;SHT31;62850;42.428;25.618;2023-07-13T02:10:54;24.44;67.94
74416;SHT31;62850;42.428;25.618;2023-07-13T02:13:19;24.41;67.79
74416;SHT31;62850;42.428;25.618;2023-07-13T02:15:45;24.36;68.05
74416;SHT31;62850;42.428;25.618;2023-07-13T02:18:10;24.31;68.43
74416;SHT31;62850;42.428;25.618;2023-07-13T02:20:36;24.29;68.32
74416;SHT31;62850;42.428;25.618;2023-07-13T02:23:02;24.24;68.63
74416;SHT31;62850;42.428;25.618;2023-07-13T02:25:27;24.20;68.46
74416;SHT31;62850;42.428;25.618;2023-07-13T02:27:53;24.21;68.49
74416;SHT31;62850;42.428;25.618;2023-07-13T02:30:18;24.22;68.50
74416;SHT31;62850;42.428;25.618;2023-07-13T02:32:44;24.21;68.50
74416;SHT31;62850;42.428;25.618;2023-07-13T02:35:10;24.18;68.57
74416;SHT31;62850;42.428;25.618;2023-07-13T02:37:35;24.17;68.60
74416;SHT31;62850;42.428;25.618;2023-07-13T02:40:01;24.21;68.64
74416;SHT31;62850;42.428;25.618;2023-07-13T02:42:33;24.21;68.69
74416;SHT31;62850;42.428;25.618;2023-07-13T02:44:58;24.21;68.67
74416;SHT31;62850;42.428;25.618;2023-07-13T02:47:24;24.20;68.81
74416;SHT31;62850;42.428;25.618;2023-07-13T02:49:49;24.22;68.75
74416;SHT31;62850;42.428;25.618;2023-07-13T02:52:15;24.22;68.78
74416;SHT31;62850;42.428;25.618;2023-07-13T02:54:41;24.25;68.64
74416;SHT31;62850;42.428;25.618;2023-07-13T02:57:06;24.22;68.80
74416;SHT31;62850;42.428;25.618;2023-07-13T02:59:32;24.18;68.86
74416;SHT31;62850;42.428;25.618;2023-07-13T03:01:57;24.22;68.77
74416;SHT31;62850;42.428;25.618;2023-07-13T03:04:23;24.28;68.81
74416;SHT31;62850;42.428;25.618;2023-07-13T03:06:48;24.25;68.68
74416;SHT31;62850;42.428;25.618;2023-07-13T03:09:14;24.21;68.92
74416;SHT31;62850;42.428;25.618;2023-07-13T03:11:39;24.22;69.05
74416;SHT31;62850;42.428;25.618;2023-07-13T03:14:05;24.22;68.94
74416;SHT31;62850;42.428;25.618;2023-07-13T03:16:31;24.27;68.85
74416;SHT31;62850;42.428;25.618;2023-07-13T03:18:56;24.27;68.60
74416;SHT31;62850;42.428;25.618;2023-07-13T03:21:22;24.22;68.98
74416;SHT31;62850;42.428;25.618;2023-07-13T03:23:47;24.15;68.90
74416;SHT31;62850;42.428;25.618;2023-07-13T03:26:19;24.18;68.89
74416;SHT31;62850;42.428;25.618;2023-07-13T03:28:45;24.15;69.04
74416;SHT31;62850;42.428;25.618;2023-07-13T03:31:20;24.17;69.13
74416;SHT31;62850;42.428;25.618;2023-07-13T03:33:47;24.14;69.23
74416;SHT31;62850;42.428;25.618;2023-07-13T03:36:16;24.13;69.33
74416;SHT31;62850;42.428;25.618;2023-07-13T03:38:46;24.21;69.22
74416;SHT31;62850;42.428;25.618;2023-07-13T03:41:13;24.25;69.16
74416;SHT31;62850;42.428;25.618;2023-07-13T03:43:39;24.27;69.17
74416;SHT31;62850;42.428;25.618;2023-07-13T03:46:05;24.31;69.18
74416;SHT31;62850;42.428;25.618;2023-07-13T03:48:30;24.36;69.21
74416;SHT31;62850;42.428;25.618;2023-07-13T03:50:56;24.39;69.15
74416;SHT31;62850;42.428;25.618;2023-07-13T03:53:21;24.45;69.30
74416;SHT31;62850;42.428;25.618;2023-07-13T03:55:47;24.54;69.13
74416;SHT31;62850;42.428;25.618;2023-07-13T03:58:28;24.59;69.02
74416;SHT31;62850;42.428;25.618;2023-07-13T04:00:55;24.59;69.16
74416;SHT31;62850;42.428;25.618;2023-07-13T04:03:20;24.64;68.98
74416;SHT31;62850;42.428;25.618;2023-07-13T04:05:46;24.71;68.90
74416;SHT31;62850;42.428;25.618;2023-07-13T04:08:12;24.73;68.86
74416;SHT31;62850;42.428;25.618;2023-07-13T04:10:38;24.80;68.64
74416;SHT31;62850;42.428;25.618;2023-07-13T04:13:04;24.86;68.47
74416;SHT31;62850;42.428;25.618;2023-07-13T04:15:31;24.92;68.38
74416;SHT31;62850;42.428;25.618;2023-07-13T04:17:57;24.96;68.26
74416;SHT31;62850;42.428;25.618;2023-07-13T04:20:24;25.03;68.08
74416;SHT31;62850;42.428;25.618;2023-07-13T04:22:49;25.06;68.26
74416;SHT31;62850;42.428;25.618;2023-07-13T04:25:15;25.09;68.10
74416;SHT31;62850;42.428;25.618;2023-07-13T04:27:41;25.13;67.93
74416;SHT31;62850;42.428;25.618;2023-07-13T04:30:06;25.19;67.59
74416;SHT31;62850;42.428;25.618;2023-07-13T04:32:32;25.28;67.45
74416;SHT31;62850;42.428;25.618;2023-07-13T04:34:58;25.28;67.21
74416;SHT31;62850;42.428;25.618;2023-07-13T04:37:25;25.35;66.74
74416;SHT31;62850;42.428;25.618;2023-07-13T04:39:51;25.48;66.44
74416;SHT31;62850;42.428;25.618;2023-07-13T04:42:17;25.57;66.28
74416;SHT31;62850;42.428;25.618;2023-07-13T04:44:50;25.61;65.57
74416;SHT31;62850;42.428;25.618;2023-07-13T04:47:16;25.67;65.29
74416;SHT31;62850;42.428;25.618;2023-07-13T04:49:42;25.72;65.25
74416;SHT31;62850;42.428;25.618;2023-07-13T04:52:07;25.77;65.74
74416;SHT31;62850;42.428;25.618;2023-07-13T04:54:33;25.84;65.94
74416;SHT31;62850;42.428;25.618;2023-07-13T04:56:59;25.82;66.20
74416;SHT31;62850;42.428;25.618;2023-07-13T04:59:25;25.86;65.66
74416;SHT31;62850;42.428;25.618;2023-07-13T05:01:51;25.88;65.63
74416;SHT31;62850;42.428;25.618;2023-07-13T05:04:16;25.92;65.31
74416;SHT31;62850;42.428;25.618;2023-07-13T05:06:42;25.92;65.10
74416;SHT31;62850;42.428;25.618;2023-07-13T05:09:08;25.95;65.18
74416;SHT31;62850;42.428;25.618;2023-07-13T05:11:33;25.99;64.84
74416;SHT31;62850;42.428;25.618;2023-07-13T05:13:59;25.99;64.81
74416;SHT31;62850;42.428;25.618;2023-07-13T05:16:27;26.01;64.68
74416;SHT31;62850;42.428;25.618;2023-07-13T05:18:52;26.03;64.78
74416;SHT31;62850;42.428;25.618;2023-07-13T05:21:18;26.11;64.87
74416;SHT31;62850;42.428;25.618;2023-07-13T05:23:43;26.18;64.45
74416;SHT31;62850;42.428;25.618;2023-07-13T05:26:09;26.30;64.04
74416;SHT31;62850;42.428;25.618;2023-07-13T05:28:35;26.29;64.27
74416;SHT31;62850;42.428;25.618;2023-07-13T05:31:00;26.32;64.13
74416;SHT31;62850;42.428;25.618;2023-07-13T05:33:26;26.39;64.25
74416;SHT31;62850;42.428;25.618;2023-07-13T05:35:52;26.44;64.27
74416;SHT31;62850;42.428;25.618;2023-07-13T05:38:18;26.46;64.26
74416;SHT31;62850;42.428;25.618;2023-07-13T05:40:44;26.53;63.11
74416;SHT31;62850;42.428;25.618;2023-07-13T05:43:10;26.63;62.62
74416;SHT31;62850;42.428;25.618;2023-07-13T05:45:35;26.63;62.86
74416;SHT31;62850;42.428;25.618;2023-07-13T05:48:01;26.69;63.24
74416;SHT31;62850;42.428;25.618;2023-07-13T05:50:27;26.70;63.86
74416;SHT31;62850;42.428;25.618;2023-07-13T05:52:52;26.77;64.04
74416;SHT31;62850;42.428;25.618;2023-07-13T05:55:19;26.79;63.86
74416;SHT31;62850;42.428;25.618;2023-07-13T05:57:44;26.83;63.33
74416;SHT31;62850;42.428;25.618;2023-07-13T06:00:10;26.83;63.67
74416;SHT31;62850;42.428;25.618;2023-07-13T06:02:36;26.86;63.39
74416;SHT31;62850;42.428;25.618;2023-07-13T06:05:02;26.91;63.45
74416;SHT31;62850;42.428;25.618;2023-07-13T06:07:27;26.95;63.38
74416;SHT31;62850;42.428;25.618;2023-07-13T06:09:53;27.04;63.24
74416;SHT31;62850;42.428;25.618;2023-07-13T06:12:18;27.04;63.10
74416;SHT31;62850;42.428;25.618;2023-07-13T06:14:44;27.08;62.92
74416;SHT31;62850;42.428;25.618;2023-07-13T06:17:09;27.15;62.69
74416;SHT31;62850;42.428;25.618;2023-07-13T06:19:35;27.25;62.33
74416;SHT31;62850;42.428;25.618;2023-07-13T06:22:00;27.24;62.33
74416;SHT31;62850;42.428;25.618;2023-07-13T06:24:26;27.34;61.98
74416;SHT31;62850;42.428;25.618;2023-07-13T06:26:51;27.52;61.68
74416;SHT31;62850;42.428;25.618;2023-07-13T06:29:17;27.55;61.64
74416;SHT31;62850;42.428;25.618;2023-07-13T06:31:42;27.62;61.63
74416;SHT31;62850;42.428;25.618;2023-07-13T06:34:08;27.69;61.34
74416;SHT31;62850;42.428;25.618;2023-07-13T06:36:34;27.78;60.77
74416;SHT31;62850;42.428;25.618;2023-07-13T06:39:01;27.83;61.18
74416;SHT31;62850;42.428;25.618;2023-07-13T06:41:27;27.82;60.76
74416;SHT31;62850;42.428;25.618;2023-07-13T06:43:52;27.92;60.57
74416;SHT31;62850;42.428;25.618;2023-07-13T06:46:21;28.10;59.85
74416;SHT31;62850;42.428;25.618;2023-07-13T06:48:46;28.16;60.74
74416;SHT31;62850;42.428;25.618;2023-07-13T06:51:12;28.20;60.41
74416;SHT31;62850;42.428;25.618;2023-07-13T06:53:37;28.33;59.96
74416;SHT31;62850;42.428;25.618;2023-07-13T06:56:03;28.40;59.11
74416;SHT31;62850;42.428;25.618;2023-07-13T06:58:29;28.47;59.40
74416;SHT31;62850;42.428;25.618;2023-07-13T07:00:54;28.64;59.13
74416;SHT31;62850;42.428;25.618;2023-07-13T07:03:20;28.74;58.84
74416;SHT31;62850;42.428;25.618;2023-07-13T07:05:45;28.78;58.72
74416;SHT31;62850;42.428;25.618;2023-07-13T07:08:11;28.83;58.27
74416;SHT31;62850;42.428;25.618;2023-07-13T07:10:36;28.91;58.22
74416;SHT31;62850;42.428;25.618;2023-07-13T07:13:03;28.95;57.99
74416;SHT31;62850;42.428;25.618;2023-07-13T07:15:29;29.02;57.74
74416;SHT31;62850;42.428;25.618;2023-07-13T07:17:55;29.17;57.62
74416;SHT31;62850;42.428;25.618;2023-07-13T07:20:21;29.33;56.82
74416;SHT31;62850;42.428;25.618;2023-07-13T07:22:47;29.40;57.43
74416;SHT31;62850;42.428;25.618;2023-07-13T07:25:12;29.54;57.60
74416;SHT31;62850;42.428;25.618;2023-07-13T07:27:38;29.64;56.87
74416;SHT31;62850;42.428;25.618;2023-07-13T07:30:04;29.63;56.84
74416;SHT31;62850;42.428;25.618;2023-07-13T07:32:30;29.60;56.06
74416;SHT31;62850;42.428;25.618;2023-07-13T07:34:57;29.70;56.22
74416;SHT31;62850;42.428;25.618;2023-07-13T07:37:23;29.81;55.93
74416;SHT31;62850;42.428;25.618;2023-07-13T07:39:48;30.00;56.09
74416;SHT31;62850;42.428;25.618;2023-07-13T07:42:16;30.14;55.24
74416;SHT31;62850;42.428;25.618;2023-07-13T07:44:42;30.25;54.87
74416;SHT31;62850;42.428;25.618;2023-07-13T07:47:08;30.39;54.79
74416;SHT31;62850;42.428;25.618;2023-07-13T07:49:35;30.42;55.21
74416;SHT31;62850;42.428;25.618;2023-07-13T07:52:00;30.56;54.78
74416;SHT31;62850;42.428;25.618;2023-07-13T07:54:26;30.70;54.57
74416;SHT31;62850;42.428;25.618;2023-07-13T07:56:51;30.90;53.41
74416;SHT31;62850;42.428;25.618;2023-07-13T07:59:17;30.95;53.52
74416;SHT31;62850;42.428;25.618;2023-07-13T08:01:42;31.08;53.33
74416;SHT31;62850;42.428;25.618;2023-07-13T08:04:10;31.31;52.81
74416;SHT31;62850;42.428;25.618;2023-07-13T08:06:36;31.46;52.06
74416;SHT31;62850;42.428;25.618;2023-07-13T08:09:01;31.68;52.25
74416;SHT31;62850;42.428;25.618;2023-07-13T08:11:29;31.90;51.50
74416;SHT31;62850;42.428;25.618;2023-07-13T08:13:54;32.09;50.91
74416;SHT31;62850;42.428;25.618;2023-07-13T08:16:20;32.30;50.13
74416;SHT31;62850;42.428;25.618;2023-07-13T08:18:45;32.40;49.28
74416;SHT31;62850;42.428;25.618;2023-07-13T08:21:11;32.54;49.88
74416;SHT31;62850;42.428;25.618;2023-07-13T08:23:36;32.71;49.15
74416;SHT31;62850;42.428;25.618;2023-07-13T08:26:03;32.87;48.76
74416;SHT31;62850;42.428;25.618;2023-07-13T08:28:30;33.06;47.81
74416;SHT31;62850;42.428;25.618;2023-07-13T08:31:03;33.23;48.22
74416;SHT31;62850;42.428;25.618;2023-07-13T08:33:29;33.41;47.68
74416;SHT31;62850;42.428;25.618;2023-07-13T08:35:54;33.55;47.34
74416;SHT31;62850;42.428;25.618;2023-07-13T08:38:20;33.65;46.52
74416;SHT31;62850;42.428;25.618;2023-07-13T08:40:51;33.86;46.91
74416;SHT31;62850;42.428;25.618;2023-07-13T08:43:23;34.00;45.94
74416;SHT31;62850;42.428;25.618;2023-07-13T08:45:54;34.07;45.38
74416;SHT31;62850;42.428;25.618;2023-07-13T08:48:26;34.10;45.71
74416;SHT31;62850;42.428;25.618;2023-07-13T08:51:00;34.15;44.53
74416;SHT31;62850;42.428;25.618;2023-07-13T08:53:36;34.42;43.53
74416;SHT31;62850;42.428;25.618;2023-07-13T08:56:05;34.58;42.71
74416;SHT31;62850;42.428;25.618;2023-07-13T08:58:38;34.68;42.26
74416;SHT31;62850;42.428;25.618;2023-07-13T09:01:18;34.81;42.59
74416;SHT31;62850;42.428;25.618;2023-07-13T09:06:30;34.81;40.77
74416;SHT31;62850;42.428;25.618;2023-07-13T09:09:04;34.96;41.05
74416;SHT31;62850;42.428;25.618;2023-07-13T09:11:50;35.12;39.83
74416;SHT31;62850;42.428;25.618;2023-07-13T09:14:50;35.27;38.69
74416;SHT31;62850;42.428;25.618;2023-07-13T09:17:20;35.34;38.74
74416;SHT31;62850;42.428;25.618;2023-07-13T09:20:06;35.53;37.99
74416;SHT31;62850;42.428;25.618;2023-07-13T09:22:37;35.71;37.32
74416;SHT31;62850;42.428;25.618;2023-07-13T09:25:24;35.81;37.32
74416;SHT31;62850;42.428;25.618;2023-07-13T09:27:54;35.99;37.75
74416;SHT31;62850;42.428;25.618;2023-07-13T09:30:32;36.05;36.83
74416;SHT31;62850;42.428;25.618;2023-07-13T09:32:59;36.17;36.62
74416;SHT31;62850;42.428;25.618;2023-07-13T09:35:26;36.14;36.63
74416;SHT31;62850;42.428;25.618;2023-07-13T09:38:02;36.35;35.49
74416;SHT31;62850;42.428;25.618;2023-07-13T09:43:21;36.69;34.18
74416;SHT31;62850;42.428;25.618;2023-07-13T09:45:47;36.72;34.07
74416;SHT31;62850;42.428;25.618;2023-07-13T09:48:14;36.75;33.79
74416;SHT31;62850;42.428;25.618;2023-07-13T09:50:41;36.84;33.54
74416;SHT31;62850;42.428;25.618;2023-07-13T09:53:18;36.97;33.09
74416;SHT31;62850;42.428;25.618;2023-07-13T09:55:46;37.03;32.36
74416;SHT31;62850;42.428;25.618;2023-07-13T09:58:21;37.03;32.81
74416;SHT31;62850;42.428;25.618;2023-07-13T10:00:57;37.11;33.29
74416;SHT31;62850;42.428;25.618;2023-07-13T10:03:28;37.31;33.69
74416;SHT31;62850;42.428;25.618;2023-07-13T10:06:01;37.42;33.83
74416;SHT31;62850;42.428;25.618;2023-07-13T10:08:35;37.53;31.18
74416;SHT31;62850;42.428;25.618;2023-07-13T10:11:11;37.46;30.58
74416;SHT31;62850;42.428;25.618;2023-07-13T10:13:41;37.41;31.13
74416;SHT31;62850;42.428;25.618;2023-07-13T10:16:08;37.53;30.38
74416;SHT31;62850;42.428;25.618;2023-07-13T10:18:48;37.58;29.53
74416;SHT31;62850;42.428;25.618;2023-07-13T10:21:22;37.66;28.63
74416;SHT31;62850;42.428;25.618;2023-07-13T10:23:52;37.76;29.26
74416;SHT31;62850;42.428;25.618;2023-07-13T10:26:25;37.69;29.35
74416;SHT31;62850;42.428;25.618;2023-07-13T10:28:54;37.75;30.12
74416;SHT31;62850;42.428;25.618;2023-07-13T10:31:22;37.92;29.53
74416;SHT31;62850;42.428;25.618;2023-07-13T10:33:48;38.13;29.95
74416;SHT31;62850;42.428;25.618;2023-07-13T10:36:23;38.26;30.03
74416;SHT31;62850;42.428;25.618;2023-07-13T10:38:55;38.34;31.32
74416;SHT31;62850;42.428;25.618;2023-07-13T10:41:24;38.30;31.57
74416;SHT31;62850;42.428;25.618;2023-07-13T10:43:53;38.36;30.80
74416;SHT31;62850;42.428;25.618;2023-07-13T10:46:22;38.36;28.73
74416;SHT31;62850;42.428;25.618;2023-07-13T10:48:52;38.27;29.38
74416;SHT31;62850;42.428;25.618;2023-07-13T10:51:19;38.46;30.00
74416;SHT31;62850;42.428;25.618;2023-07-13T10:56:41;38.60;28.79
74416;SHT31;62850;42.428;25.618;2023-07-13T10:59:12;38.64;28.18
74416;SHT31;62850;42.428;25.618;2023-07-13T11:04:41;38.84;28.55
74416;SHT31;62850;42.428;25.618;2023-07-13T11:07:20;38.80;28.77
74416;SHT31;62850;42.428;25.618;2023-07-13T11:09:51;38.77;28.88
74416;SHT31;62850;42.428;25.618;2023-07-13T11:17:38;39.21;28.77
74416;SHT31;62850;42.428;25.618;2023-07-13T11:33:23;39.43;28.27
74416;SHT31;62850;42.428;25.618;2023-07-13T11:36:06;39.38;28.31
74416;SHT31;62850;42.428;25.618;2023-07-13T11:38:42;39.38;28.32
74416;SHT31;62850;42.428;25.618;2023-07-13T11:41:17;39.50;28.79
74416;SHT31;62850;42.428;25.618;2023-07-13T11:43:44;39.68;28.09
74416;SHT31;62850;42.428;25.618;2023-07-13T11:46:15;39.79;27.89
74416;SHT31;62850;42.428;25.618;2023-07-13T11:48:42;39.70;25.89
74416;SHT31;62850;42.428;25.618;2023-07-13T11:51:17;39.53;25.55
74416;SHT31;62850;42.428;25.618;2023-07-13T11:53:46;39.53;26.09
74416;SHT31;62850;42.428;25.618;2023-07-13T11:56:12;39.56;27.69
74416;SHT31;62850;42.428;25.618;2023-07-13T11:58:39;39.62;27.19
74416;SHT31;62850;42.428;25.618;2023-07-13T12:01:05;39.79;26.32
74416;SHT31;62850;42.428;25.618;2023-07-13T12:03:32;39.69;26.41
74416;SHT31;62850;42.428;25.618;2023-07-13T12:06:25;39.53;27.01
74416;SHT31;62850;42.428;25.618;2023-07-13T12:08:50;39.55;27.73
74416;SHT31;62850;42.428;25.618;2023-07-13T12:11:18;39.68;27.20
74416;SHT31;62850;42.428;25.618;2023-07-13T12:13:45;39.70;27.60
74416;SHT31;62850;42.428;25.618;2023-07-13T12:16:26;39.86;27.98
74416;SHT31;62850;42.428;25.618;2023-07-13T12:18:53;39.90;27.61
74416;SHT31;62850;42.428;25.618;2023-07-13T12:21:23;39.92;28.12
74416;SHT31;62850;42.428;25.618;2023-07-13T12:23:51;39.83;28.50
74416;SHT31;62850;42.428;25.618;2023-07-13T12:26:18;39.69;28.52
74416;SHT31;62850;42.428;25.618;2023-07-13T12:28:48;39.87;28.49
74416;SHT31;62850;42.428;25.618;2023-07-13T12:31:50;39.89;27.35
74416;SHT31;62850;42.428;25.618;2023-07-13T12:34:20;39.83;27.43
74416;SHT31;62850;42.428;25.618;2023-07-13T12:36:50;39.52;28.14
74416;SHT31;62850;42.428;25.618;2023-07-13T12:39:25;39.62;27.45
74416;SHT31;62850;42.428;25.618;2023-07-13T12:41:53;39.18;28.02
74416;SHT31;62850;42.428;25.618;2023-07-13T12:44:40;39.45;27.65
74416;SHT31;62850;42.428;25.618;2023-07-13T12:47:12;39.48;28.45
74416;SHT31;62850;42.428;25.618;2023-07-13T12:49:42;39.53;28.64
74416;SHT31;62850;42.428;25.618;2023-07-13T12:52:17;39.59;28.04
74416;SHT31;62850;42.428;25.618;2023-07-13T12:54:56;39.58;27.30
74416;SHT31;62850;42.428;25.618;2023-07-13T12:57:22;39.65;26.93
74416;SHT31;62850;42.428;25.618;2023-07-13T12:59:52;39.59;27.69
74416;SHT31;62850;42.428;25.618;2023-07-13T13:02:33;39.65;28.01
74416;SHT31;62850;42.428;25.618;2023-07-13T13:05:00;39.60;26.96
74416;SHT31;62850;42.428;25.618;2023-07-13T13:07:28;39.68;27.33
74416;SHT31;62850;42.428;25.618;2023-07-13T13:09:54;39.62;27.37
74416;SHT31;62850;42.428;25.618;2023-07-13T13:12:20;39.69;28.27
74416;SHT31;62850;42.428;25.618;2023-07-13T13:14:46;39.63;28.85
74416;SHT31;62850;42.428;25.618;2023-07-13T13:17:23;39.50;27.32
74416;SHT31;62850;42.428;25.618;2023-07-13T13:19:50;39.46;27.91
74416;SHT31;62850;42.428;25.618;2023-07-13T13:22:18;39.52;28.87
74416;SHT31;62850;42.428;25.618;2023-07-13T13:24:44;39.69;27.61
74416;SHT31;62850;42.428;25.618;2023-07-13T13:27:15;39.74;27.15
74416;SHT31;62850;42.428;25.618;2023-07-13T13:29:43;39.85;27.58
74416;SHT31;62850;42.428;25.618;2023-07-13T13:32:11;39.86;27.81
74416;SHT31;62850;42.428;25.618;2023-07-13T13:34:38;39.93;28.16
74416;SHT31;62850;42.428;25.618;2023-07-13T13:37:08;39.92;27.25
74416;SHT31;62850;42.428;25.618;2023-07-13T13:39:39;39.97;28.18
74416;SHT31;62850;42.428;25.618;2023-07-13T13:42:04;39.90;28.36
74416;SHT31;62850;42.428;25.618;2023-07-13T13:44:30;39.96;28.03
74416;SHT31;62850;42.428;25.618;2023-07-13T13:46:56;39.86;27.49
74416;SHT31;62850;42.428;25.618;2023-07-13T13:49:25;39.83;28.04
74416;SHT31;62850;42.428;25.618;2023-07-13T13:51:52;39.89;28.45
74416;SHT31;62850;42.428;25.618;2023-07-13T13:54:18;39.90;28.15
74416;SHT31;62850;42.428;25.618;2023-07-13T13:56:46;39.89;28.26
74416;SHT31;62850;42.428;25.618;2023-07-13T13:59:13;39.83;28.20
74416;SHT31;62850;42.428;25.618;2023-07-13T14:01:41;39.76;28.06
74416;SHT31;62850;42.428;25.618;2023-07-13T14:04:15;39.79;28.47
74416;SHT31;62850;42.428;25.618;2023-07-13T14:06:42;39.79;28.93
74416;SHT31;62850;42.428;25.618;2023-07-13T14:09:11;39.83;28.23
74416;SHT31;62850;42.428;25.618;2023-07-13T14:11:36;39.73;28.05
74416;SHT31;62850;42.428;25.618;2023-07-13T14:14:02;39.59;27.34
74416;SHT31;62850;42.428;25.618;2023-07-13T14:16:30;39.66;28.04
74416;SHT31;62850;42.428;25.618;2023-07-13T14:18:59;39.63;28.28
74416;SHT31;62850;42.428;25.618;2023-07-13T14:21:37;39.59;28.47
74416;SHT31;62850;42.428;25.618;2023-07-13T14:24:03;39.53;28.38
74416;SHT31;62850;42.428;25.618;2023-07-13T14:26:31;39.46;28.50
74416;SHT31;62850;42.428;25.618;2023-07-13T14:28:57;39.41;28.60
74416;SHT31;62850;42.428;25.618;2023-07-13T14:31:27;39.33;28.49
74416;SHT31;62850;42.428;25.618;2023-07-13T14:33:54;39.26;28.72
74416;SHT31;62850;42.428;25.618;2023-07-13T14:36:40;39.32;29.39
74416;SHT31;62850;42.428;25.618;2023-07-13T14:39:15;39.39;28.60
74416;SHT31;62850;42.428;25.618;2023-07-13T14:41:42;39.33;28.09
74416;SHT31;62850;42.428;25.618;2023-07-13T14:44:16;39.31;28.34
74416;SHT31;62850;42.428;25.618;2023-07-13T14:46:43;39.28;28.43
74416;SHT31;62850;42.428;25.618;2023-07-13T14:49:20;39.35;28.48
74416;SHT31;62850;42.428;25.618;2023-07-13T14:51:47;39.37;29.06
74416;SHT31;62850;42.428;25.618;2023-07-13T14:54:12;39.32;29.29
74416;SHT31;62850;42.428;25.618;2023-07-13T14:56:38;39.17;29.49
74416;SHT31;62850;42.428;25.618;2023-07-13T14:59:03;39.19;29.71
74416;SHT31;62850;42.428;25.618;2023-07-13T15:01:30;38.91;30.01
74416;SHT31;62850;42.428;25.618;2023-07-13T15:03:57;38.98;29.44
74416;SHT31;62850;42.428;25.618;2023-07-13T15:06:23;38.97;29.98
74416;SHT31;62850;42.428;25.618;2023-07-13T15:08:49;38.84;30.06
74416;SHT31;62850;42.428;25.618;2023-07-13T15:11:15;38.71;29.75
74416;SHT31;62850;42.428;25.618;2023-07-13T15:13:41;38.70;28.28
74416;SHT31;62850;42.428;25.618;2023-07-13T15:16:18;38.68;29.40
74416;SHT31;62850;42.428;25.618;2023-07-13T15:18:45;38.57;29.65
74416;SHT31;62850;42.428;25.618;2023-07-13T15:21:14;38.60;29.26
74416;SHT31;62850;42.428;25.618;2023-07-13T15:23:42;38.51;29.33
74416;SHT31;62850;42.428;25.618;2023-07-13T15:26:13;38.37;28.02
74416;SHT31;62850;42.428;25.618;2023-07-13T15:28:40;38.46;29.31
74416;SHT31;62850;42.428;25.618;2023-07-13T15:31:18;38.24;28.59
74416;SHT31;62850;42.428;25.618;2023-07-13T15:33:44;38.24;27.98
74416;SHT31;62850;42.428;25.618;2023-07-13T15:36:09;38.32;29.09
74416;SHT31;62850;42.428;25.618;2023-07-13T15:38:36;38.33;29.69
74416;SHT31;62850;42.428;25.618;2023-07-13T15:41:26;38.26;29.71
74416;SHT31;62850;42.428;25.618;2023-07-13T15:43:54;38.16;29.07
74416;SHT31;62850;42.428;25.618;2023-07-13T15:46:22;38.17;29.32
74416;SHT31;62850;42.428;25.618;2023-07-13T15:48:52;38.16;30.01
74416;SHT31;62850;42.428;25.618;2023-07-13T15:51:30;37.89;30.03
74416;SHT31;62850;42.428;25.618;2023-07-13T15:54:01;37.81;29.95